Edinboro, Pennsylvania
Current Conditions -  °F | °C
As of 10:51 AM on Sunday 25 Jan 2015 (Local Time) from KERI Reporting Station
Overcast Overcast  
Wind Chill:   Ceiling: 5000
Heat Index: 22°   Visibility: 10mi
Dew Point: 14°   Wind: 14mph
Humidity: 72%   Direction: 40°NE
Pressure: 29.9"   Gusts: NA
Location:  41.88°N, 80.13°W
Report Text: KERI 251551Z 04012KT 10SM SCT016 OVC050 M06/M10 A2990 RMK AO2 CIG 016 NE SLP133 T10561100
Loading
Personal Weather Stations






























Interactive Weather Map New forecast layout! Learn more

10-Day Weather Forecast

Advertisements
Track Severe Weather on mobile